This is the latest recevied weather packets stored in our database for station/object EA3CH. If no packets are shown the sender has not sent any weather packets the latest 10 day(s).
| Time | Temp. | Humidity | Pressure | Rain* | Wind** | Luminosity | Snow |
|---|---|---|---|---|---|---|---|
| 1788104704 | 29.44° C | 47% | 1017.6 hPa | 0 mm | - | 0 W/m² | - |
| 1788103804 | 30° C | 47% | 1017.6 hPa | 0 mm | - | 0 W/m² | - |
| 1788102906 | 30.56° C | 37% | 1017.5 hPa | 0 mm | - | 0 W/m² | - |
| 1788102904 | 30° C | 47% | 1017.7 hPa | 0 mm | - | 0 W/m² | - |
| 1788102006 | 30.56° C | 37% | 1017.6 hPa | 0 mm | - | 0 W/m² | - |
| 1788102003 | 30.56° C | 47% | 1017.8 hPa | 0 mm | - | 0 W/m² | - |
| 1788101104 | 30° C | 49% | 1017.7 hPa | 0 mm | - | 0 W/m² | - |
| 1788100203 | 30.56° C | 48% | 1017.7 hPa | 0 mm | - | 0 W/m² | - |
| 1788099304 | 30.56° C | 47% | 1017.9 hPa | 0 mm | - | 0 W/m² | - |
| 1788098404 | 30.56° C | 47% | 1018 hPa | 0 mm | - | 0 W/m² | - |
| 1788097506 | 31.11° C | 31% | 1017.9 hPa | 0 mm | - | 0 W/m² | - |
| 1788097504 | 31.11° C | 40% | 1018.1 hPa | 0 mm | - | 0 W/m² | - |
| 1788096606 | 31.11° C | 29% | 1018.1 hPa | 0 mm | - | 0 W/m² | - |
| 1788096604 | 31.67° C | 38% | 1018.3 hPa | 0 mm | - | 0 W/m² | - |
| 1788095703 | 31.67° C | 38% | 1018.4 hPa | 0 mm | - | 0 W/m² | - |
| 1788094804 | 31.11° C | 37% | 1018.4 hPa | 0 mm | - | 0 W/m² | - |
| 1788093904 | 30.56° C | 39% | 1018.6 hPa | 0 mm | - | 0 W/m² | - |
| 1788093003 | 31.11° C | 40% | 1018.9 hPa | 0 mm | - | 0 W/m² | - |
| 1788092106 | 30.56° C | 32% | 1018.9 hPa | 0 mm | - | 0 W/m² | - |
| 1788092104 | 30.56° C | 42% | 1019.1 hPa | 0 mm | - | 0 W/m² | - |
| 1788091204 | 29.44° C | 44% | 1019.1 hPa | 0 mm | - | 0 W/m² | - |
| 1788090304 | 30° C | 45% | 1019.2 hPa | 0 mm | - | 0 W/m² | - |
| 1788089403 | 30° C | 44% | 1019.3 hPa | 0 mm | - | 0 W/m² | - |
| 1788088504 | 29.44° C | 43% | 1019.4 hPa | 0 mm | - | 0 W/m² | - |
| 1788087606 | 28.89° C | 37% | 1019.4 hPa | 0 mm | - | 0 W/m² | - |
* Rain latest hour (hover to see other rain measurements)
** Current wind speed in m/s (hover to see current wind gust speed)